createdAt,value
2024-02-18T00:02:07.819Z,102786.53
2024-02-18T00:04:34.759Z,102771.00
2024-02-18T00:07:01.721Z,102772.88
2024-02-18T00:09:28.473Z,102767.53
2024-02-18T00:11:55.964Z,102770.91
2024-02-18T00:14:22.800Z,102782.13
2024-02-18T00:16:49.961Z,102771.63
2024-02-18T00:19:16.827Z,102768.88
2024-02-18T00:21:43.568Z,102776.63
2024-02-18T00:24:10.174Z,102774.00
2024-02-18T00:26:48.732Z,102772.16
2024-02-18T00:29:23.885Z,102775.50
2024-02-18T00:31:50.429Z,102771.16
2024-02-18T00:34:24.328Z,102760.81
2024-02-18T00:36:52.129Z,102777.91
2024-02-18T00:39:19.148Z,102756.56
2024-02-18T00:41:45.734Z,102768.44
2024-02-18T00:44:12.588Z,102758.78
2024-02-18T00:46:45.550Z,102755.47
2024-02-18T00:49:19.094Z,102763.81
2024-02-18T00:51:46.438Z,102752.72
2024-02-18T00:54:13.207Z,102762.31
2024-02-18T00:56:39.752Z,102749.25
2024-02-18T00:59:06.282Z,102749.91
2024-02-18T01:01:32.942Z,102760.41
2024-02-18T01:04:00.322Z,102747.44
2024-02-18T01:06:27.111Z,102745.81
2024-02-18T01:08:53.725Z,102743.00
2024-02-18T01:11:20.302Z,102747.56
2024-02-18T01:13:46.894Z,102746.78
2024-02-18T01:16:13.629Z,102747.66
2024-02-18T01:18:41.840Z,102734.50
2024-02-18T01:21:08.825Z,102741.63
2024-02-18T01:23:36.571Z,102739.94
2024-02-18T01:26:04.467Z,102740.06
2024-02-18T01:28:31.061Z,102735.81
2024-02-18T01:30:57.767Z,102739.28
2024-02-18T01:33:24.977Z,102734.19
2024-02-18T01:35:51.715Z,102733.25
2024-02-18T01:38:18.519Z,102721.91
2024-02-18T01:40:45.219Z,102719.03
2024-02-18T01:43:14.199Z,102709.50
2024-02-18T01:45:40.898Z,102708.75
2024-02-18T01:48:08.103Z,102701.75
2024-02-18T01:50:35.174Z,102701.09
2024-02-18T01:53:01.854Z,102704.75
2024-02-18T01:55:28.598Z,102696.19
2024-02-18T01:57:55.281Z,102687.72
2024-02-18T02:00:22.658Z,102695.47
2024-02-18T02:02:50.630Z,102690.19
2024-02-18T02:05:20.830Z,102680.16
2024-02-18T02:07:53.554Z,102689.41
2024-02-18T02:10:20.740Z,102696.28
2024-02-18T02:12:47.473Z,102705.03
2024-02-18T02:15:14.340Z,102699.72
2024-02-18T02:17:41.007Z,102704.84
2024-02-18T02:20:10.350Z,102704.84
2024-02-18T02:22:38.416Z,102690.91
2024-02-18T02:25:07.322Z,102676.75
2024-02-18T02:27:45.525Z,102678.50
2024-02-18T02:30:12.434Z,102677.00
2024-02-18T02:32:39.287Z,102676.28
2024-02-18T02:35:07.995Z,102682.75
2024-02-18T02:37:35.165Z,102684.78
2024-02-18T02:40:01.792Z,102669.41
2024-02-18T02:42:28.475Z,102667.41
2024-02-18T02:44:54.975Z,102667.59
2024-02-18T02:47:21.747Z,102674.63
2024-02-18T02:49:48.466Z,102681.53
2024-02-18T02:52:15.201Z,102690.22
2024-02-18T02:54:41.852Z,102685.56
2024-02-18T02:57:08.482Z,102676.34
2024-02-18T02:59:35.019Z,102680.19
2024-02-18T03:02:01.825Z,102663.56
2024-02-18T03:04:28.784Z,102667.50
2024-02-18T03:06:55.690Z,102672.72
2024-02-18T03:09:22.444Z,102645.63
2024-02-18T03:11:49.303Z,102674.81
2024-02-18T03:14:16.203Z,102671.50
2024-02-18T03:16:42.892Z,102661.22
2024-02-18T03:19:09.721Z,102654.34
2024-02-18T03:21:36.512Z,102662.84
2024-02-18T03:24:03.345Z,102659.41
2024-02-18T03:26:30.896Z,102642.31
2024-02-18T03:28:57.555Z,102662.91
2024-02-18T03:31:24.111Z,102650.75
2024-02-18T03:33:50.802Z,102653.41
2024-02-18T03:36:17.389Z,102655.03
2024-02-18T03:38:44.029Z,102650.66
2024-02-18T03:41:10.612Z,102644.66
2024-02-18T03:43:37.196Z,102642.00
2024-02-18T03:46:04.246Z,102639.38
2024-02-18T03:48:31.083Z,102618.75
2024-02-18T03:50:57.858Z,102628.97
2024-02-18T03:53:24.498Z,102613.41
2024-02-18T03:55:51.401Z,102615.81
2024-02-18T03:58:18.084Z,102608.13
2024-02-18T04:00:47.920Z,102608.78
2024-02-18T04:03:15.254Z,102608.00
2024-02-18T04:05:42.990Z,102597.38
2024-02-18T04:08:10.380Z,102612.06
2024-02-18T04:10:37.367Z,102612.06
2024-02-18T04:13:05.093Z,102603.38
2024-02-18T04:15:31.966Z,102602.41
2024-02-18T04:17:58.888Z,102580.84
2024-02-18T04:20:25.795Z,102572.19
2024-02-18T04:22:52.406Z,102580.66
2024-02-18T04:25:19.082Z,102579.00
2024-02-18T04:27:45.673Z,102583.38
2024-02-18T04:30:12.695Z,102577.31
2024-02-18T04:32:39.229Z,102574.50
2024-02-18T04:35:06.170Z,102570.22
2024-02-18T04:37:32.895Z,102563.44
2024-02-18T04:39:59.593Z,102524.22
2024-02-18T04:42:26.323Z,102565.19
2024-02-18T04:44:52.901Z,102550.41
2024-02-18T04:47:19.678Z,102553.75
2024-02-18T04:49:46.454Z,102538.34
2024-02-18T04:52:13.297Z,102548.06
2024-02-18T04:54:40.851Z,102546.16
2024-02-18T04:57:08.052Z,102543.00
2024-02-18T04:59:35.338Z,102536.09
2024-02-18T05:02:04.085Z,102507.81
2024-02-18T05:04:32.917Z,102526.81
2024-02-18T05:07:00.815Z,102538.16
2024-02-18T05:09:27.740Z,102530.41
2024-02-18T05:11:55.595Z,102525.09
2024-02-18T05:14:22.298Z,102526.81
2024-02-18T05:16:49.308Z,102518.16
2024-02-18T05:19:16.826Z,102519.88
2024-02-18T05:21:43.820Z,102525.66
2024-02-18T05:24:15.054Z,102517.97
2024-02-18T05:26:41.678Z,102503.50
2024-02-18T05:29:10.486Z,102521.28
2024-02-18T05:31:37.115Z,102523.91
2024-02-18T05:34:04.370Z,102528.34
2024-02-18T05:36:31.598Z,102524.75
2024-02-18T05:38:58.146Z,102528.19
2024-02-18T05:41:24.700Z,102522.84
2024-02-18T05:43:51.388Z,102527.25
2024-02-18T05:46:18.413Z,102519.38
2024-02-18T05:48:46.117Z,102516.91
2024-02-18T05:51:13.094Z,102517.75
2024-02-18T05:53:39.613Z,102505.44
2024-02-18T05:56:07.961Z,102505.50
2024-02-18T05:58:34.631Z,102489.81
2024-02-18T06:01:01.446Z,102496.72
2024-02-18T06:03:28.153Z,102487.38
2024-02-18T06:05:54.904Z,102486.63
2024-02-18T06:08:21.786Z,102473.09
2024-02-18T06:10:50.046Z,102477.13
2024-02-18T06:13:16.768Z,102466.75
2024-02-18T06:15:43.373Z,102465.22
2024-02-18T06:18:10.137Z,102479.16
2024-02-18T06:20:36.778Z,102474.06
2024-02-18T06:23:03.439Z,102468.06
2024-02-18T06:25:36.651Z,102465.47
2024-02-18T06:28:10.258Z,102461.94
2024-02-18T06:30:37.990Z,102455.81
2024-02-18T06:33:05.181Z,102455.63
2024-02-18T06:35:32.057Z,102452.25
2024-02-18T06:37:58.806Z,102439.22
2024-02-18T06:40:28.618Z,102445.88
2024-02-18T06:42:55.269Z,102438.81
2024-02-18T06:45:21.911Z,102448.25
2024-02-18T06:47:49.029Z,102437.69
2024-02-18T06:50:16.638Z,102446.38
2024-02-18T06:52:43.209Z,102440.09
2024-02-18T06:55:11.017Z,102443.56
2024-02-18T06:57:38.010Z,102439.28
2024-02-18T07:00:05.454Z,102433.16
2024-02-18T07:02:32.181Z,102435.84
2024-02-18T07:04:58.784Z,102422.91
2024-02-18T07:07:25.489Z,102417.91
2024-02-18T07:09:52.243Z,102421.91
2024-02-18T07:12:18.780Z,102420.13
2024-02-18T07:14:45.342Z,102421.66
2024-02-18T07:17:13.832Z,102410.25
2024-02-18T07:19:40.502Z,102403.63
2024-02-18T07:22:07.831Z,102392.84
2024-02-18T07:24:34.718Z,102410.81
2024-02-18T07:27:01.289Z,102398.59
2024-02-18T07:29:27.775Z,102406.22
2024-02-18T07:31:54.334Z,102396.56
2024-02-18T07:34:21.392Z,102394.78
2024-02-18T07:36:48.204Z,102394.69
2024-02-18T07:39:14.812Z,102388.63
2024-02-18T07:41:41.340Z,102384.06
2024-02-18T07:44:08.671Z,102379.69
2024-02-18T07:46:35.304Z,102383.84
2024-02-18T07:49:02.058Z,102370.97
2024-02-18T07:51:29.507Z,102380.28
2024-02-18T07:53:57.238Z,102363.34
2024-02-18T07:56:23.949Z,102361.31
2024-02-18T07:58:50.725Z,102356.88
2024-02-18T08:01:17.423Z,102359.16
2024-02-18T08:03:44.347Z,102353.56
2024-02-18T08:06:11.081Z,102338.22
2024-02-18T08:08:37.646Z,102350.16
2024-02-18T08:11:04.351Z,102341.09
2024-02-18T08:13:30.887Z,102346.13
2024-02-18T08:15:59.664Z,102340.75
2024-02-18T08:18:26.656Z,102341.53
2024-02-18T08:20:53.248Z,102337.09
2024-02-18T08:23:19.813Z,102341.25
2024-02-18T08:25:46.597Z,102323.69
2024-02-18T08:28:13.368Z,102335.31
2024-02-18T08:30:39.939Z,102321.38
2024-02-18T08:33:06.520Z,102317.84
2024-02-18T08:35:33.053Z,102316.88
2024-02-18T08:37:59.556Z,102305.44
2024-02-18T08:40:26.995Z,102299.25
2024-02-18T08:42:54.316Z,102295.88
2024-02-18T08:45:21.608Z,102302.84
2024-02-18T08:47:49.526Z,102299.09
2024-02-18T08:50:16.339Z,102294.75
2024-02-18T08:52:42.867Z,102298.19
2024-02-18T08:55:09.638Z,102298.13
2024-02-18T08:57:36.466Z,102284.16
2024-02-18T09:00:04.136Z,102287.34
2024-02-18T09:02:30.773Z,102274.00
2024-02-18T09:05:00.751Z,102269.66
2024-02-18T09:07:29.549Z,102269.00
2024-02-18T09:09:56.369Z,102255.84
2024-02-18T09:12:22.994Z,102247.09
2024-02-18T09:14:49.670Z,102212.47
2024-02-18T09:17:19.215Z,102246.47
2024-02-18T09:19:49.251Z,102239.88
2024-02-18T09:22:15.972Z,102230.16
2024-02-18T09:24:45.551Z,102233.06
2024-02-18T09:27:12.237Z,102230.16
2024-02-18T09:29:39.444Z,102215.06
2024-02-18T09:32:06.569Z,102221.81
2024-02-18T09:34:33.295Z,102220.81
2024-02-18T09:36:59.970Z,102206.78
2024-02-18T09:39:26.699Z,102207.41
2024-02-18T09:41:54.268Z,102201.13
2024-02-18T09:44:23.930Z,102190.06
2024-02-18T09:46:53.332Z,102181.31
2024-02-18T09:49:21.564Z,102187.16
2024-02-18T09:51:54.117Z,102176.63
2024-02-18T09:54:22.608Z,102178.09
2024-02-18T09:56:49.284Z,102175.56
2024-02-18T09:59:18.110Z,102168.72
2024-02-18T10:01:48.844Z,102169.41
2024-02-18T10:04:15.694Z,102159.28
2024-02-18T10:06:44.735Z,102153.38
2024-02-18T10:09:11.429Z,102163.72
2024-02-18T10:11:38.045Z,102167.81
2024-02-18T10:14:07.169Z,102169.19
2024-02-18T10:16:37.247Z,102176.47
2024-02-18T10:19:04.114Z,102154.44
2024-02-18T10:21:30.771Z,102160.28
2024-02-18T10:23:57.436Z,102154.72
2024-02-18T10:26:24.074Z,102145.75
2024-02-18T10:28:50.638Z,102150.38
2024-02-18T10:31:17.216Z,102146.09
2024-02-18T10:33:43.974Z,102147.47
2024-02-18T10:36:15.901Z,102145.75
2024-02-18T10:38:47.523Z,102141.00
2024-02-18T10:41:17.721Z,102136.81
2024-02-18T10:43:51.487Z,102136.81
2024-02-18T10:46:21.808Z,102116.16
2024-02-18T10:49:20.121Z,102116.53
2024-02-18T10:51:51.191Z,102109.25
2024-02-18T10:54:27.702Z,102110.06
2024-02-18T10:56:56.632Z,102104.88
2024-02-18T10:59:46.647Z,102101.66
2024-02-18T11:02:20.601Z,102108.09
2024-02-18T11:04:49.501Z,102099.72
2024-02-18T11:07:17.832Z,102102.41
2024-02-18T11:09:47.041Z,102097.44
2024-02-18T11:12:14.773Z,102095.53
2024-02-18T11:14:41.401Z,102087.31
2024-02-18T11:17:09.718Z,102087.03
2024-02-18T11:19:38.847Z,102091.16
2024-02-18T11:22:06.583Z,102099.50
2024-02-18T11:24:33.189Z,102097.91
2024-02-18T11:26:59.778Z,102101.84
2024-02-18T11:29:26.380Z,102085.38
2024-02-18T11:31:55.033Z,102083.75
2024-02-18T11:34:21.703Z,102069.97
2024-02-18T11:36:48.634Z,102077.84
2024-02-18T11:39:15.754Z,102066.78
2024-02-18T11:41:43.143Z,102064.84
2024-02-18T11:44:14.391Z,102061.97
2024-02-18T11:46:46.040Z,102056.38
2024-02-18T11:49:13.271Z,102025.50
2024-02-18T11:51:41.746Z,102044.56
2024-02-18T11:54:08.560Z,102036.75
2024-02-18T11:56:35.468Z,102030.50
2024-02-18T11:59:02.370Z,102019.28
2024-02-18T12:01:33.904Z,102013.06
2024-02-18T12:04:01.161Z,102005.03
2024-02-18T12:06:27.966Z,101976.22
2024-02-18T12:08:54.887Z,101993.63
2024-02-18T12:11:21.625Z,101984.66
2024-02-18T12:13:50.438Z,101972.41
2024-02-18T12:16:17.806Z,101955.53
2024-02-18T12:18:45.040Z,101963.50
2024-02-18T12:21:15.480Z,101961.75
2024-02-18T12:23:43.887Z,101940.84
2024-02-18T12:26:10.672Z,101935.41
2024-02-18T12:28:37.269Z,101929.97
2024-02-18T12:31:05.140Z,101927.34
2024-02-18T12:33:32.600Z,101924.53
2024-02-18T12:35:59.379Z,101920.94
2024-02-18T12:38:28.803Z,101916.94
2024-02-18T12:40:57.109Z,101911.25
2024-02-18T12:43:57.921Z,101889.09
2024-02-18T12:46:13.335Z,101883.13
2024-02-18T12:48:40.749Z,101863.91
2024-02-18T12:51:17.090Z,101856.16
2024-02-18T12:53:44.487Z,101842.97
2024-02-18T12:56:13.438Z,101842.19
2024-02-18T12:58:40.720Z,101852.78
2024-02-18T13:01:10.390Z,101829.41
2024-02-18T13:03:39.127Z,101831.97
2024-02-18T13:06:07.996Z,101811.03
2024-02-18T13:08:35.238Z,101816.88
2024-02-18T13:11:02.147Z,101813.03
2024-02-18T13:13:29.212Z,101826.97
2024-02-18T13:15:59.292Z,101813.97
2024-02-18T13:18:29.360Z,101816.63
2024-02-18T13:21:04.400Z,101795.97
2024-02-18T13:23:38.779Z,101793.13
2024-02-18T13:28:44.555Z,101777.66
2024-02-18T13:31:14.672Z,101762.03
2024-02-18T13:33:41.414Z,101786.81
2024-02-18T13:36:08.586Z,101798.34
2024-02-18T13:38:35.492Z,101802.63
2024-02-18T13:41:03.318Z,101798.34
2024-02-18T13:43:31.410Z,101807.22
2024-02-18T13:45:58.063Z,101803.72
2024-02-18T13:48:24.783Z,101804.53
2024-02-18T13:50:51.769Z,101804.72
2024-02-18T13:53:18.549Z,101806.75
2024-02-18T13:55:45.076Z,101805.19
2024-02-18T13:58:11.677Z,101780.75
2024-02-18T14:00:38.624Z,101779.44
2024-02-18T14:03:05.397Z,101767.38
2024-02-18T14:05:32.060Z,101779.84
2024-02-18T14:07:58.589Z,101773.72
2024-02-18T14:10:28.089Z,101763.75
2024-02-18T14:12:54.761Z,101778.22
2024-02-18T14:15:23.440Z,101757.91
2024-02-18T14:17:55.746Z,101755.91
2024-02-18T14:20:22.961Z,101750.81
2024-02-18T14:22:50.700Z,101765.13
2024-02-18T14:25:21.764Z,101748.06
2024-02-18T14:27:49.968Z,101735.63
2024-02-18T14:30:18.096Z,101737.06
2024-02-18T14:32:45.610Z,101725.72
2024-02-18T14:35:12.584Z,101730.66
2024-02-18T14:37:39.330Z,101706.47
2024-02-18T14:40:06.881Z,101708.63
2024-02-18T14:42:33.509Z,101711.66
2024-02-18T14:45:01.643Z,101700.28
2024-02-18T14:47:28.962Z,101696.56
2024-02-18T14:49:55.787Z,101704.91
2024-02-18T14:52:22.448Z,101688.13
2024-02-18T14:54:49.049Z,101688.81
2024-02-18T14:57:16.780Z,101674.69
2024-02-18T14:59:43.401Z,101675.41
2024-02-18T15:02:09.943Z,101672.63
2024-02-18T15:04:36.879Z,101673.38
2024-02-18T15:07:03.684Z,101654.19
2024-02-18T15:09:33.379Z,101660.31
2024-02-18T15:12:00.421Z,101660.16
2024-02-18T15:14:28.277Z,101648.72
2024-02-18T15:16:54.978Z,101643.50
2024-02-18T15:19:22.099Z,101640.03
2024-02-18T15:21:49.702Z,101642.63
2024-02-18T15:24:16.659Z,101618.97
2024-02-18T15:26:45.449Z,101636.50
2024-02-18T15:29:12.544Z,101659.16
2024-02-18T15:31:40.212Z,101637.22
2024-02-18T15:34:06.814Z,101619.81
2024-02-18T15:36:33.498Z,101636.13
2024-02-18T15:39:00.518Z,101636.22
2024-02-18T15:41:27.410Z,101624.97
2024-02-18T15:43:54.126Z,101626.72
2024-02-18T15:46:20.820Z,101631.47
2024-02-18T15:48:47.825Z,101603.66
2024-02-18T15:51:14.514Z,101611.69
2024-02-18T15:53:42.013Z,101620.84
2024-02-18T15:56:09.073Z,101606.88
2024-02-18T15:58:36.366Z,101634.22
2024-02-18T16:01:05.042Z,101643.00
2024-02-18T16:03:32.733Z,101608.63
2024-02-18T16:05:59.466Z,101611.81
2024-02-18T16:08:34.424Z,101610.38
2024-02-18T16:11:04.681Z,101601.44
2024-02-18T16:13:31.389Z,101616.91
2024-02-18T16:15:57.950Z,101609.84
2024-02-18T16:18:24.630Z,101596.69
2024-02-18T16:20:51.236Z,101606.31
2024-02-18T16:23:17.851Z,101606.31
2024-02-18T16:25:44.382Z,101593.28
2024-02-18T16:28:11.651Z,101596.91
2024-02-18T16:30:38.323Z,101575.34
2024-02-18T16:33:05.088Z,101599.69
2024-02-18T16:35:31.927Z,101620.72
2024-02-18T16:37:58.579Z,101611.31
2024-02-18T16:40:25.677Z,101596.78
2024-02-18T16:42:52.388Z,101600.41
2024-02-18T16:45:19.068Z,101602.19
2024-02-18T16:47:45.688Z,101611.75
2024-02-18T16:50:12.381Z,101604.59
2024-02-18T16:52:38.968Z,101615.84
2024-02-18T16:55:06.125Z,101610.47
2024-02-18T16:57:33.135Z,101613.75
2024-02-18T16:59:59.701Z,101636.94
2024-02-18T17:02:26.289Z,101611.41
2024-02-18T17:04:53.183Z,101631.81
2024-02-18T17:07:20.711Z,101624.84
2024-02-18T17:09:48.604Z,101638.56
2024-02-18T17:12:16.307Z,101655.69
2024-02-18T17:14:42.863Z,101638.00
2024-02-18T17:17:09.478Z,101649.00
2024-02-18T17:19:36.106Z,101641.25
2024-02-18T17:22:02.874Z,101651.44
2024-02-18T17:24:29.896Z,101649.66
2024-02-18T17:26:59.439Z,101645.72
2024-02-18T17:29:26.052Z,101662.97
2024-02-18T17:31:52.920Z,101679.56
2024-02-18T17:34:25.548Z,101679.56
2024-02-18T17:36:57.619Z,101677.13
2024-02-18T17:39:26.347Z,101683.44
2024-02-18T17:41:54.014Z,101694.06
2024-02-18T17:44:20.744Z,101693.22
2024-02-18T17:46:47.427Z,101692.41
2024-02-18T17:49:14.097Z,101691.28
2024-02-18T17:51:41.163Z,101693.69
2024-02-18T17:54:08.131Z,101697.75
2024-02-18T17:56:35.301Z,101703.63
2024-02-18T17:59:02.021Z,101690.81
2024-02-18T18:01:28.762Z,101715.34
2024-02-18T18:03:55.452Z,101723.19
2024-02-18T18:06:22.041Z,101734.75
2024-02-18T18:08:48.552Z,101745.25
2024-02-18T18:11:15.151Z,101737.53
2024-02-18T18:13:41.851Z,101745.53
2024-02-18T18:16:08.525Z,101734.94
2024-02-18T18:18:37.194Z,101735.75
2024-02-18T18:21:04.519Z,101734.00
2024-02-18T18:23:31.120Z,101738.38
2024-02-18T18:25:58.652Z,101727.75
2024-02-18T18:28:25.411Z,101723.56
2024-02-18T18:30:52.205Z,101723.66
2024-02-18T18:33:18.925Z,101720.75
2024-02-18T18:35:45.488Z,101729.44
2024-02-18T18:38:12.067Z,101752.16
2024-02-18T18:40:38.651Z,101752.09
2024-02-18T18:43:05.216Z,101753.19
2024-02-18T18:45:31.840Z,101753.84
2024-02-18T18:47:59.968Z,101765.13
2024-02-18T18:50:26.555Z,101774.72
2024-02-18T18:52:54.726Z,101781.72
2024-02-18T18:55:21.708Z,101769.59
2024-02-18T18:57:48.312Z,101777.84
2024-02-18T19:00:15.106Z,101769.22
2024-02-18T19:02:41.662Z,101766.88
2024-02-18T19:05:08.847Z,101756.44
2024-02-18T19:07:36.188Z,101758.03
2024-02-18T19:10:04.024Z,101768.47
2024-02-18T19:12:30.836Z,101781.47
2024-02-18T19:14:57.441Z,101765.72
2024-02-18T19:17:26.675Z,101770.94
2024-02-18T19:19:53.346Z,101781.38
2024-02-18T19:22:19.995Z,101777.91
2024-02-18T19:24:49.551Z,101777.25
2024-02-18T19:27:16.186Z,101785.06
2024-02-18T19:29:42.749Z,101797.56
2024-02-18T19:32:09.319Z,101794.09
2024-02-18T19:34:36.292Z,101799.75
2024-02-18T19:37:03.073Z,101788.66
2024-02-18T19:39:32.066Z,101804.31
2024-02-18T19:41:58.660Z,101794.88
2024-02-18T19:44:25.197Z,101795.81
2024-02-18T19:46:52.214Z,101781.09
2024-02-18T19:49:18.975Z,101788.13
2024-02-18T19:51:47.558Z,101798.16
2024-02-18T19:54:15.356Z,101780.94
2024-02-18T19:56:42.559Z,101764.97
2024-02-18T19:59:09.978Z,101771.03
2024-02-18T20:01:36.912Z,101772.72
2024-02-18T20:04:03.779Z,101790.44
2024-02-18T20:06:30.616Z,101789.59
2024-02-18T20:08:57.222Z,101777.47
2024-02-18T20:11:25.755Z,101786.84
2024-02-18T20:13:53.877Z,101788.66
2024-02-18T20:16:20.439Z,101795.66
2024-02-18T20:18:47.111Z,101807.03
2024-02-18T20:21:14.889Z,101794.91
2024-02-18T20:23:42.151Z,101794.06
2024-02-18T20:26:17.965Z,101787.50
2024-02-18T20:28:44.718Z,101797.66
2024-02-18T20:31:19.212Z,101802.81
2024-02-18T20:33:46.139Z,101802.81
2024-02-18T20:36:13.791Z,101785.81
2024-02-18T20:38:41.819Z,101812.50
2024-02-18T20:41:09.028Z,101805.25
2024-02-18T20:43:35.923Z,101805.41
2024-02-18T20:46:04.253Z,101807.19
2024-02-18T20:48:31.091Z,101800.38
2024-02-18T20:50:57.814Z,101819.88
2024-02-18T20:53:24.441Z,101820.81
2024-02-18T20:55:50.960Z,101823.34
2024-02-18T20:58:19.249Z,101821.50
2024-02-18T21:00:45.916Z,101832.75
2024-02-18T21:03:13.273Z,101830.06
2024-02-18T21:05:40.035Z,101847.41
2024-02-18T21:08:06.884Z,101844.03
2024-02-18T21:10:33.463Z,101847.41
2024-02-18T21:13:00.014Z,101842.84
2024-02-18T21:15:28.592Z,101844.72
2024-02-18T21:17:55.287Z,101841.50
2024-02-18T21:20:21.879Z,101852.72
2024-02-18T21:22:48.430Z,101844.78
2024-02-18T21:25:18.039Z,101860.75
2024-02-18T21:27:44.813Z,101857.25
2024-02-18T21:30:11.797Z,101869.44
2024-02-18T21:32:39.152Z,101868.59
2024-02-18T21:35:06.114Z,101867.00
2024-02-18T21:37:35.528Z,101865.16
2024-02-18T21:40:05.819Z,101880.72
2024-02-18T21:42:35.385Z,101871.97
2024-02-18T21:45:02.221Z,101874.59
2024-02-18T21:47:28.788Z,101879.03
2024-02-18T21:49:55.409Z,101873.16
2024-02-18T21:52:22.306Z,101870.63
2024-02-18T21:54:52.420Z,101884.25
2024-02-18T21:57:19.543Z,101888.44
2024-02-18T21:59:46.698Z,101881.47
2024-02-18T22:02:13.488Z,101891.16
2024-02-18T22:04:40.290Z,101887.69
2024-02-18T22:07:13.866Z,101900.75
2024-02-18T22:09:45.366Z,101899.88
2024-02-18T22:12:12.373Z,101894.03
2024-02-18T22:14:38.973Z,101899.06
2024-02-18T22:17:07.416Z,101894.59
2024-02-18T22:19:34.401Z,101904.47
2024-02-18T22:22:01.133Z,101902.91
2024-02-18T22:24:28.649Z,101900.38
2024-02-18T22:26:55.545Z,101916.81
2024-02-18T22:29:22.337Z,101907.31
2024-02-18T22:31:48.943Z,101903.34
2024-02-18T22:34:18.740Z,101878.16
2024-02-18T22:36:45.453Z,101913.00
2024-02-18T22:39:13.457Z,101915.78
2024-02-18T22:41:42.789Z,101921.91
2024-02-18T22:44:09.361Z,101931.41
2024-02-18T22:46:35.901Z,101926.13
2024-02-18T22:49:03.008Z,101932.34
2024-02-18T22:51:29.675Z,101934.28
2024-02-18T22:53:56.216Z,101946.63
2024-02-18T22:56:22.736Z,101942.16
2024-02-18T22:58:50.431Z,101930.63
2024-02-18T23:01:17.102Z,101937.97
2024-02-18T23:03:43.746Z,101953.94
2024-02-18T23:06:10.401Z,101951.25
2024-02-18T23:08:40.703Z,101940.38
2024-02-18T23:11:08.812Z,101955.22
2024-02-18T23:13:35.693Z,101970.63
2024-02-18T23:16:02.301Z,101962.47
2024-02-18T23:18:28.881Z,101975.03
2024-02-18T23:20:55.447Z,101978.38
2024-02-18T23:23:21.965Z,101969.41
2024-02-18T23:25:48.556Z,101987.38
2024-02-18T23:28:15.276Z,101990.03
2024-02-18T23:30:41.919Z,101998.72
2024-02-18T23:33:08.526Z,102004.75
2024-02-18T23:35:35.186Z,102002.47
2024-02-18T23:38:01.735Z,102009.31
2024-02-18T23:40:28.453Z,102011.06
2024-02-18T23:42:55.075Z,102020.63
2024-02-18T23:45:21.702Z,102026.75
2024-02-18T23:47:48.234Z,102037.28
2024-02-18T23:50:14.952Z,102029.53
2024-02-18T23:52:41.494Z,102024.00
2024-02-18T23:55:09.332Z,102043.47
2024-02-18T23:57:35.965Z,102043.56
